KIEN

Details ICAO KIEN
Name PINE RIDGE
Region United States
Timezone America/Denver (UTC-7.0)
Plans Departing 0
Arriving 1
Stats Elevation 3,333 ft / 1,016 m (AMSL)
Location 43.022923° -102.512477°
Runways 2
Magnetic Variation 7.034° E
Sunrise 2017-12-13 14:14:37 UTC / 2017-12-13 07:14:37 Local
Sunset 2017-12-13 23:16:59 UTC / 2017-12-13 16:16:59 Local
Advertisement - Login to hide

Runways

ID Width Length Bearing (true) Bearing (mag) Surface Threshold Offset Overrun Length
06 50 ft / 15 m 2,996 ft / 913 m 76.87° 69.84° Asphalt 0 ft / 0 m 0 ft / 0 m
12 60 ft / 18 m 4,995 ft / 1,523 m 128.74° 121.71° Asphalt 0 ft / 0 m 0 ft / 0 m
24 50 ft / 15 m 2,996 ft / 913 m 256.88° 249.85° Asphalt 0 ft / 0 m 0 ft / 0 m
30 60 ft / 18 m 4,995 ft / 1,523 m 308.75° 301.72° Asphalt 0 ft / 0 m 0 ft / 0 m

Map

Weather


0- 5 10 15 20 25 30 35+ Temperature / ° C

Clouds and Precipitation
Forecast for 2017-12-13 18:00 UTC. Updated an hour ago

Ground ~20,000 ft ~40,000 ft Winds

METAR

KIEN 131752Z AUTO 33017G23KT 10SM CLR 08/M05 A3005 RMK AO2 SLP185 T00831050 10083 20000 50003

TAF

Not found

Frequencies

Recorded 126.77 MHz ASOS
Unicom 122.90 MHz CTAF
Warning: Do not use this data for real-world aviation or navigation. No guarantee of current accuracy is given.